sensor_id;sensor_type;location;lat;lon;timestamp;P1;durP1;ratioP1;P2;durP2;ratioP2
61399;SDS011;47269;48.182;-1.946;2023-02-15T06:00:18;19.23;;;10.32;;
61399;SDS011;47269;48.182;-1.946;2023-02-15T06:02:43;20.58;;;10.93;;
61399;SDS011;47269;48.182;-1.946;2023-02-15T06:05:09;15.90;;;9.80;;
61399;SDS011;47269;48.182;-1.946;2023-02-15T06:07:35;26.75;;;13.73;;
61399;SDS011;47269;48.182;-1.946;2023-02-15T06:10:00;20.42;;;10.77;;
61399;SDS011;47269;48.182;-1.946;2023-02-15T06:12:27;20.73;;;9.93;;
61399;SDS011;47269;48.182;-1.946;2023-02-15T06:14:52;19.67;;;10.73;;
61399;SDS011;47269;48.182;-1.946;2023-02-15T06:17:18;20.27;;;10.23;;
61399;SDS011;47269;48.182;-1.946;2023-02-15T06:19:44;15.13;;;10.73;;
61399;SDS011;47269;48.182;-1.946;2023-02-15T06:22:09;22.23;;;10.43;;
61399;SDS011;47269;48.182;-1.946;2023-02-15T06:24:35;24.42;;;12.05;;
61399;SDS011;47269;48.182;-1.946;2023-02-15T06:27:01;19.98;;;11.32;;
61399;SDS011;47269;48.182;-1.946;2023-02-15T06:29:26;21.25;;;12.20;;
61399;SDS011;47269;48.182;-1.946;2023-02-15T06:31:52;17.42;;;10.05;;
61399;SDS011;47269;48.182;-1.946;2023-02-15T06:34:18;22.20;;;10.65;;
61399;SDS011;47269;48.182;-1.946;2023-02-15T06:36:43;22.65;;;13.57;;
61399;SDS011;47269;48.182;-1.946;2023-02-15T06:39:09;16.17;;;9.98;;
61399;SDS011;47269;48.182;-1.946;2023-02-15T06:41:35;23.85;;;10.70;;
61399;SDS011;47269;48.182;-1.946;2023-02-15T06:44:00;19.60;;;9.85;;
61399;SDS011;47269;48.182;-1.946;2023-02-15T06:46:26;20.35;;;11.25;;
61399;SDS011;47269;48.182;-1.946;2023-02-15T06:48:52;18.92;;;10.20;;
61399;SDS011;47269;48.182;-1.946;2023-02-15T06:51:18;19.73;;;11.52;;
61399;SDS011;47269;48.182;-1.946;2023-02-15T06:53:43;20.80;;;11.45;;
61399;SDS011;47269;48.182;-1.946;2023-02-15T06:56:09;20.02;;;11.23;;
61399;SDS011;47269;48.182;-1.946;2023-02-15T06:58:39;20.30;;;11.88;;
61399;SDS011;47269;48.182;-1.946;2023-02-15T07:01:05;17.20;;;10.70;;
61399;SDS011;47269;48.182;-1.946;2023-02-15T07:03:32;21.17;;;10.80;;
61399;SDS011;47269;48.182;-1.946;2023-02-15T07:05:59;25.98;;;11.50;;
61399;SDS011;47269;48.182;-1.946;2023-02-15T07:08:26;22.83;;;10.88;;
61399;SDS011;47269;48.182;-1.946;2023-02-15T07:10:53;20.13;;;11.77;;
61399;SDS011;47269;48.182;-1.946;2023-02-15T07:13:20;23.08;;;10.75;;
61399;SDS011;47269;48.182;-1.946;2023-02-15T07:15:46;19.02;;;10.93;;
61399;SDS011;47269;48.182;-1.946;2023-02-15T07:18:12;20.60;;;10.70;;
61399;SDS011;47269;48.182;-1.946;2023-02-15T07:20:38;22.48;;;10.73;;
61399;SDS011;47269;48.182;-1.946;2023-02-15T07:23:06;25.33;;;10.73;;
61399;SDS011;47269;48.182;-1.946;2023-02-15T07:25:33;16.10;;;9.80;;
61399;SDS011;47269;48.182;-1.946;2023-02-15T07:27:59;21.63;;;9.82;;
61399;SDS011;47269;48.182;-1.946;2023-02-15T07:30:26;20.02;;;12.82;;
61399;SDS011;47269;48.182;-1.946;2023-02-15T07:32:56;17.80;;;9.98;;
61399;SDS011;47269;48.182;-1.946;2023-02-15T07:35:48;17.10;;;9.88;;
61399;SDS011;47269;48.182;-1.946;2023-02-15T07:38:13;21.95;;;11.70;;
61399;SDS011;47269;48.182;-1.946;2023-02-15T07:40:39;22.58;;;10.32;;
61399;SDS011;47269;48.182;-1.946;2023-02-15T07:43:05;17.55;;;9.68;;
61399;SDS011;47269;48.182;-1.946;2023-02-15T07:45:31;18.27;;;10.38;;
61399;SDS011;47269;48.182;-1.946;2023-02-15T07:47:56;19.02;;;12.65;;
61399;SDS011;47269;48.182;-1.946;2023-02-15T07:50:22;18.73;;;11.70;;
61399;SDS011;47269;48.182;-1.946;2023-02-15T07:52:48;23.05;;;12.10;;
61399;SDS011;47269;48.182;-1.946;2023-02-15T07:55:14;21.92;;;12.45;;
61399;SDS011;47269;48.182;-1.946;2023-02-15T07:57:43;21.52;;;10.65;;
61399;SDS011;47269;48.182;-1.946;2023-02-15T08:00:10;22.65;;;12.20;;
61399;SDS011;47269;48.182;-1.946;2023-02-15T08:02:37;21.73;;;12.45;;
61399;SDS011;47269;48.182;-1.946;2023-02-15T08:05:03;31.45;;;13.45;;
61399;SDS011;47269;48.182;-1.946;2023-02-15T08:07:30;21.67;;;12.98;;
61399;SDS011;47269;48.182;-1.946;2023-02-15T08:09:55;18.13;;;9.40;;
61399;SDS011;47269;48.182;-1.946;2023-02-15T08:12:21;21.67;;;11.73;;
61399;SDS011;47269;48.182;-1.946;2023-02-15T08:14:46;25.33;;;12.82;;
61399;SDS011;47269;48.182;-1.946;2023-02-15T08:17:12;18.13;;;10.23;;
61399;SDS011;47269;48.182;-1.946;2023-02-15T08:19:38;17.20;;;11.27;;
61399;SDS011;47269;48.182;-1.946;2023-02-15T08:22:04;22.55;;;11.65;;
61399;SDS011;47269;48.182;-1.946;2023-02-15T08:24:33;22.40;;;10.60;;
61399;SDS011;47269;48.182;-1.946;2023-02-15T08:27:01;21.45;;;9.90;;
61399;SDS011;47269;48.182;-1.946;2023-02-15T08:29:30;21.15;;;11.50;;
61399;SDS011;47269;48.182;-1.946;2023-02-15T08:31:57;23.60;;;11.73;;
61399;SDS011;47269;48.182;-1.946;2023-02-15T08:34:35;22.85;;;13.60;;
61399;SDS011;47269;48.182;-1.946;2023-02-15T08:37:03;24.17;;;11.80;;
61399;SDS011;47269;48.182;-1.946;2023-02-15T08:39:30;20.90;;;11.68;;
61399;SDS011;47269;48.182;-1.946;2023-02-15T08:41:56;23.95;;;11.75;;
61399;SDS011;47269;48.182;-1.946;2023-02-15T08:44:23;26.10;;;13.65;;
61399;SDS011;47269;48.182;-1.946;2023-02-15T08:46:49;22.70;;;13.27;;
61399;SDS011;47269;48.182;-1.946;2023-02-15T08:49:16;22.58;;;11.23;;
61399;SDS011;47269;48.182;-1.946;2023-02-15T08:51:44;15.02;;;8.75;;
61399;SDS011;47269;48.182;-1.946;2023-02-15T08:54:14;14.75;;;9.27;;
61399;SDS011;47269;48.182;-1.946;2023-02-15T08:56:42;18.10;;;11.30;;
61399;SDS011;47269;48.182;-1.946;2023-02-15T08:59:16;23.33;;;10.43;;
61399;SDS011;47269;48.182;-1.946;2023-02-15T09:01:47;19.40;;;10.15;;
61399;SDS011;47269;48.182;-1.946;2023-02-15T09:04:14;16.30;;;8.35;;
61399;SDS011;47269;48.182;-1.946;2023-02-15T09:06:41;20.38;;;11.15;;
61399;SDS011;47269;48.182;-1.946;2023-02-15T09:09:09;21.60;;;11.70;;
61399;SDS011;47269;48.182;-1.946;2023-02-15T09:11:37;18.13;;;11.90;;
61399;SDS011;47269;48.182;-1.946;2023-02-15T09:14:05;24.30;;;13.43;;
61399;SDS011;47269;48.182;-1.946;2023-02-15T09:16:36;21.67;;;11.07;;
61399;SDS011;47269;48.182;-1.946;2023-02-15T09:19:03;19.55;;;11.10;;
61399;SDS011;47269;48.182;-1.946;2023-02-15T09:24:01;17.00;;;9.75;;
61399;SDS011;47269;48.182;-1.946;2023-02-15T09:26:30;19.52;;;12.07;;
61399;SDS011;47269;48.182;-1.946;2023-02-15T09:28:58;21.38;;;10.60;;
61399;SDS011;47269;48.182;-1.946;2023-02-15T09:31:29;27.08;;;12.88;;
61399;SDS011;47269;48.182;-1.946;2023-02-15T09:33:59;22.02;;;13.23;;
61399;SDS011;47269;48.182;-1.946;2023-02-15T09:36:32;22.17;;;12.93;;
61399;SDS011;47269;48.182;-1.946;2023-02-15T09:39:21;20.92;;;11.35;;
61399;SDS011;47269;48.182;-1.946;2023-02-15T09:45:02;24.00;;;11.00;;
61399;SDS011;47269;48.182;-1.946;2023-02-15T09:53:12;18.75;;;11.77;;
61399;SDS011;47269;48.182;-1.946;2023-02-15T10:05:05;24.58;;;13.52;;
61399;SDS011;47269;48.182;-1.946;2023-02-15T10:13:59;25.23;;;14.68;;
61399;SDS011;47269;48.182;-1.946;2023-02-15T10:16:44;26.05;;;14.10;;
61399;SDS011;47269;48.182;-1.946;2023-02-15T10:19:42;25.63;;;13.75;;
61399;SDS011;47269;48.182;-1.946;2023-02-15T10:25:31;21.55;;;12.75;;
61399;SDS011;47269;48.182;-1.946;2023-02-15T10:28:13;25.67;;;14.73;;
61399;SDS011;47269;48.182;-1.946;2023-02-15T10:30:46;23.38;;;14.52;;
61399;SDS011;47269;48.182;-1.946;2023-02-15T10:33:33;25.15;;;14.43;;
61399;SDS011;47269;48.182;-1.946;2023-02-15T10:36:11;28.92;;;14.32;;
61399;SDS011;47269;48.182;-1.946;2023-02-15T10:41:31;27.60;;;14.85;;
61399;SDS011;47269;48.182;-1.946;2023-02-15T10:52:23;24.25;;;15.63;;
61399;SDS011;47269;48.182;-1.946;2023-02-15T10:58:04;22.55;;;13.55;;
61399;SDS011;47269;48.182;-1.946;2023-02-15T11:00:44;21.23;;;15.20;;
61399;SDS011;47269;48.182;-1.946;2023-02-15T11:06:21;23.85;;;15.50;;
61399;SDS011;47269;48.182;-1.946;2023-02-15T11:08:55;26.38;;;16.00;;
61399;SDS011;47269;48.182;-1.946;2023-02-15T11:11:34;26.40;;;16.17;;
61399;SDS011;47269;48.182;-1.946;2023-02-15T11:16:48;30.25;;;18.65;;
61399;SDS011;47269;48.182;-1.946;2023-02-15T11:22:04;28.52;;;17.67;;
61399;SDS011;47269;48.182;-1.946;2023-02-15T11:24:31;29.30;;;19.27;;
61399;SDS011;47269;48.182;-1.946;2023-02-15T11:27:23;23.98;;;17.25;;
61399;SDS011;47269;48.182;-1.946;2023-02-15T11:32:39;27.17;;;16.48;;
61399;SDS011;47269;48.182;-1.946;2023-02-15T11:35:17;23.75;;;16.90;;
61399;SDS011;47269;48.182;-1.946;2023-02-15T11:38:06;22.33;;;15.40;;
61399;SDS011;47269;48.182;-1.946;2023-02-15T11:40:50;24.30;;;17.27;;
61399;SDS011;47269;48.182;-1.946;2023-02-15T11:46:23;25.42;;;17.00;;
61399;SDS011;47269;48.182;-1.946;2023-02-15T11:48:48;24.95;;;17.08;;
61399;SDS011;47269;48.182;-1.946;2023-02-15T11:51:16;24.10;;;17.60;;
61399;SDS011;47269;48.182;-1.946;2023-02-15T11:53:44;26.38;;;18.08;;
61399;SDS011;47269;48.182;-1.946;2023-02-15T11:56:14;22.88;;;16.92;;
61399;SDS011;47269;48.182;-1.946;2023-02-15T11:58:47;20.77;;;15.40;;
61399;SDS011;47269;48.182;-1.946;2023-02-15T12:01:50;21.35;;;15.80;;
61399;SDS011;47269;48.182;-1.946;2023-02-15T12:07:17;21.45;;;13.65;;
61399;SDS011;47269;48.182;-1.946;2023-02-15T12:12:35;21.88;;;14.88;;
61399;SDS011;47269;48.182;-1.946;2023-02-15T12:15:06;24.10;;;15.77;;
61399;SDS011;47269;48.182;-1.946;2023-02-15T12:20:04;19.75;;;14.50;;
61399;SDS011;47269;48.182;-1.946;2023-02-15T12:22:49;19.50;;;14.30;;
61399;SDS011;47269;48.182;-1.946;2023-02-15T12:25:35;19.90;;;13.52;;
61399;SDS011;47269;48.182;-1.946;2023-02-15T12:28:20;20.65;;;13.25;;
61399;SDS011;47269;48.182;-1.946;2023-02-15T12:30:50;19.40;;;12.88;;
61399;SDS011;47269;48.182;-1.946;2023-02-15T12:33:38;17.90;;;13.00;;
61399;SDS011;47269;48.182;-1.946;2023-02-15T12:38:36;19.77;;;13.18;;
61399;SDS011;47269;48.182;-1.946;2023-02-15T12:41:21;18.52;;;13.18;;
61399;SDS011;47269;48.182;-1.946;2023-02-15T12:44:09;17.25;;;12.25;;
61399;SDS011;47269;48.182;-1.946;2023-02-15T12:49:39;15.32;;;11.10;;
61399;SDS011;47269;48.182;-1.946;2023-02-15T12:54:51;16.17;;;11.15;;
61399;SDS011;47269;48.182;-1.946;2023-02-15T12:57:30;17.05;;;12.60;;
61399;SDS011;47269;48.182;-1.946;2023-02-15T12:59:58;18.27;;;12.25;;
61399;SDS011;47269;48.182;-1.946;2023-02-15T13:08:18;18.52;;;12.60;;
61399;SDS011;47269;48.182;-1.946;2023-02-15T13:10:54;17.67;;;11.07;;
61399;SDS011;47269;48.182;-1.946;2023-02-15T13:13:26;17.05;;;11.65;;
61399;SDS011;47269;48.182;-1.946;2023-02-15T13:15:56;15.82;;;12.15;;
61399;SDS011;47269;48.182;-1.946;2023-02-15T13:20:52;16.33;;;11.57;;
61399;SDS011;47269;48.182;-1.946;2023-02-15T13:23:27;17.63;;;12.07;;
61399;SDS011;47269;48.182;-1.946;2023-02-15T13:25:58;16.00;;;10.65;;
61399;SDS011;47269;48.182;-1.946;2023-02-15T13:28:47;14.73;;;10.68;;
61399;SDS011;47269;48.182;-1.946;2023-02-15T13:31:20;13.70;;;9.90;;
61399;SDS011;47269;48.182;-1.946;2023-02-15T13:34:00;15.38;;;10.75;;
61399;SDS011;47269;48.182;-1.946;2023-02-15T13:41:48;15.80;;;11.10;;
61399;SDS011;47269;48.182;-1.946;2023-02-15T13:44:54;15.27;;;10.80;;
61399;SDS011;47269;48.182;-1.946;2023-02-15T13:50:56;15.95;;;12.52;;
61399;SDS011;47269;48.182;-1.946;2023-02-15T13:53:53;18.73;;;12.30;;
61399;SDS011;47269;48.182;-1.946;2023-02-15T13:59:34;14.85;;;12.15;;
61399;SDS011;47269;48.182;-1.946;2023-02-15T14:16:09;17.50;;;12.52;;
61399;SDS011;47269;48.182;-1.946;2023-02-15T14:18:49;16.40;;;12.52;;
61399;SDS011;47269;48.182;-1.946;2023-02-15T14:24:33;15.77;;;11.85;;
61399;SDS011;47269;48.182;-1.946;2023-02-15T14:33:20;15.65;;;11.88;;
61399;SDS011;47269;48.182;-1.946;2023-02-15T14:35:47;16.92;;;11.95;;
61399;SDS011;47269;48.182;-1.946;2023-02-15T14:38:24;17.02;;;11.45;;
61399;SDS011;47269;48.182;-1.946;2023-02-15T14:47:39;15.27;;;11.75;;
61399;SDS011;47269;48.182;-1.946;2023-02-15T14:50:35;17.55;;;11.98;;
61399;SDS011;47269;48.182;-1.946;2023-02-15T14:56:13;15.48;;;12.07;;
61399;SDS011;47269;48.182;-1.946;2023-02-15T15:01:30;15.73;;;11.48;;
61399;SDS011;47269;48.182;-1.946;2023-02-15T15:06:38;15.85;;;10.82;;
61399;SDS011;47269;48.182;-1.946;2023-02-15T15:11:38;16.52;;;11.98;;
61399;SDS011;47269;48.182;-1.946;2023-02-15T15:14:07;20.50;;;12.23;;
61399;SDS011;47269;48.182;-1.946;2023-02-15T15:19:03;17.85;;;11.82;;
61399;SDS011;47269;48.182;-1.946;2023-02-15T15:47:21;18.92;;;12.63;;
61399;SDS011;47269;48.182;-1.946;2023-02-15T15:49:58;28.00;;;14.02;;
61399;SDS011;47269;48.182;-1.946;2023-02-15T15:55:01;18.95;;;11.25;;
61399;SDS011;47269;48.182;-1.946;2023-02-15T15:57:34;19.25;;;11.77;;
61399;SDS011;47269;48.182;-1.946;2023-02-15T16:00:04;17.67;;;11.85;;
61399;SDS011;47269;48.182;-1.946;2023-02-15T16:02:57;20.65;;;11.23;;
61399;SDS011;47269;48.182;-1.946;2023-02-15T16:05:22;19.02;;;11.95;;
61399;SDS011;47269;48.182;-1.946;2023-02-15T16:07:48;16.08;;;11.13;;
61399;SDS011;47269;48.182;-1.946;2023-02-15T16:12:48;16.75;;;10.32;;
61399;SDS011;47269;48.182;-1.946;2023-02-15T16:15:16;17.58;;;10.52;;
61399;SDS011;47269;48.182;-1.946;2023-02-15T16:17:50;17.50;;;11.18;;
61399;SDS011;47269;48.182;-1.946;2023-02-15T16:20:21;16.90;;;9.93;;
61399;SDS011;47269;48.182;-1.946;2023-02-15T16:22:48;20.27;;;10.30;;
61399;SDS011;47269;48.182;-1.946;2023-02-15T16:25:40;19.77;;;13.15;;
61399;SDS011;47269;48.182;-1.946;2023-02-15T16:28:27;17.73;;;10.63;;
61399;SDS011;47269;48.182;-1.946;2023-02-15T16:31:06;20.02;;;12.18;;
61399;SDS011;47269;48.182;-1.946;2023-02-15T16:33:37;21.55;;;12.93;;
61399;SDS011;47269;48.182;-1.946;2023-02-15T16:36:05;17.70;;;11.38;;
61399;SDS011;47269;48.182;-1.946;2023-02-15T16:41:13;29.10;;;17.52;;
61399;SDS011;47269;48.182;-1.946;2023-02-15T16:43:47;20.35;;;11.95;;
61399;SDS011;47269;48.182;-1.946;2023-02-15T16:46:59;19.02;;;11.63;;
61399;SDS011;47269;48.182;-1.946;2023-02-15T16:49:25;21.52;;;11.57;;
61399;SDS011;47269;48.182;-1.946;2023-02-15T16:51:54;20.35;;;11.80;;
61399;SDS011;47269;48.182;-1.946;2023-02-15T16:54:24;19.63;;;11.68;;
61399;SDS011;47269;48.182;-1.946;2023-02-15T16:56:51;16.58;;;10.77;;
61399;SDS011;47269;48.182;-1.946;2023-02-15T16:59:21;18.23;;;11.45;;
61399;SDS011;47269;48.182;-1.946;2023-02-15T17:01:57;41.85;;;22.80;;
61399;SDS011;47269;48.182;-1.946;2023-02-15T17:04:28;25.63;;;13.13;;
61399;SDS011;47269;48.182;-1.946;2023-02-15T17:07:05;48.40;;;24.80;;
61399;SDS011;47269;48.182;-1.946;2023-02-15T17:09:48;33.35;;;23.40;;
61399;SDS011;47269;48.182;-1.946;2023-02-15T17:18:38;22.35;;;15.35;;
61399;SDS011;47269;48.182;-1.946;2023-02-15T17:20:47;22.13;;;14.75;;
61399;SDS011;47269;48.182;-1.946;2023-02-15T17:26:02;20.27;;;12.13;;
61399;SDS011;47269;48.182;-1.946;2023-02-15T17:31:46;21.55;;;11.23;;
61399;SDS011;47269;48.182;-1.946;2023-02-15T17:40:35;23.27;;;13.57;;
61399;SDS011;47269;48.182;-1.946;2023-02-15T17:42:55;22.42;;;14.15;;
61399;SDS011;47269;48.182;-1.946;2023-02-15T17:45:22;23.80;;;12.95;;
61399;SDS011;47269;48.182;-1.946;2023-02-15T17:48:01;22.52;;;12.95;;
61399;SDS011;47269;48.182;-1.946;2023-02-15T17:50:29;28.55;;;20.48;;
61399;SDS011;47269;48.182;-1.946;2023-02-15T17:52:55;27.13;;;18.70;;
61399;SDS011;47269;48.182;-1.946;2023-02-15T17:55:22;39.67;;;24.83;;
61399;SDS011;47269;48.182;-1.946;2023-02-15T17:58:03;28.90;;;18.23;;
61399;SDS011;47269;48.182;-1.946;2023-02-15T18:00:31;32.67;;;17.17;;
61399;SDS011;47269;48.182;-1.946;2023-02-15T18:03:19;28.70;;;19.48;;
61399;SDS011;47269;48.182;-1.946;2023-02-15T18:06:04;25.38;;;14.68;;
61399;SDS011;47269;48.182;-1.946;2023-02-15T18:08:48;29.00;;;19.35;;
61399;SDS011;47269;48.182;-1.946;2023-02-15T18:11:33;29.83;;;17.67;;
61399;SDS011;47269;48.182;-1.946;2023-02-15T18:14:02;24.92;;;16.83;;
61399;SDS011;47269;48.182;-1.946;2023-02-15T18:16:29;27.85;;;18.17;;
61399;SDS011;47269;48.182;-1.946;2023-02-15T18:19:02;26.55;;;16.38;;
61399;SDS011;47269;48.182;-1.946;2023-02-15T18:21:30;31.83;;;17.83;;
61399;SDS011;47269;48.182;-1.946;2023-02-15T18:23:56;35.83;;;20.02;;
61399;SDS011;47269;48.182;-1.946;2023-02-15T18:26:22;33.78;;;21.15;;
61399;SDS011;47269;48.182;-1.946;2023-02-15T18:28:50;43.08;;;25.17;;
61399;SDS011;47269;48.182;-1.946;2023-02-15T18:31:15;32.72;;;17.25;;
61399;SDS011;47269;48.182;-1.946;2023-02-15T18:33:43;24.65;;;13.75;;
61399;SDS011;47269;48.182;-1.946;2023-02-15T18:36:21;20.17;;;11.85;;
61399;SDS011;47269;48.182;-1.946;2023-02-15T18:38:52;16.80;;;12.23;;
61399;SDS011;47269;48.182;-1.946;2023-02-15T18:41:19;21.50;;;12.90;;
61399;SDS011;47269;48.182;-1.946;2023-02-15T18:43:46;19.23;;;11.18;;
61399;SDS011;47269;48.182;-1.946;2023-02-15T18:46:15;21.27;;;11.20;;
61399;SDS011;47269;48.182;-1.946;2023-02-15T18:48:42;22.23;;;12.43;;
61399;SDS011;47269;48.182;-1.946;2023-02-15T18:51:17;20.52;;;13.23;;
61399;SDS011;47269;48.182;-1.946;2023-02-15T18:53:49;21.42;;;12.13;;
61399;SDS011;47269;48.182;-1.946;2023-02-15T18:56:17;19.52;;;12.27;;
61399;SDS011;47269;48.182;-1.946;2023-02-15T18:58:45;25.90;;;12.80;;
61399;SDS011;47269;48.182;-1.946;2023-02-15T19:01:15;33.35;;;16.55;;
61399;SDS011;47269;48.182;-1.946;2023-02-15T19:03:43;31.48;;;16.55;;
61399;SDS011;47269;48.182;-1.946;2023-02-15T19:06:13;34.63;;;17.60;;
61399;SDS011;47269;48.182;-1.946;2023-02-15T19:08:44;33.25;;;15.98;;
61399;SDS011;47269;48.182;-1.946;2023-02-15T19:11:16;24.10;;;12.60;;
61399;SDS011;47269;48.182;-1.946;2023-02-15T19:13:44;33.05;;;18.63;;
61399;SDS011;47269;48.182;-1.946;2023-02-15T19:16:45;26.35;;;16.35;;
61399;SDS011;47269;48.182;-1.946;2023-02-15T19:19:04;28.27;;;17.50;;
61399;SDS011;47269;48.182;-1.946;2023-02-15T19:21:53;33.42;;;21.00;;
61399;SDS011;47269;48.182;-1.946;2023-02-15T19:24:31;42.38;;;27.50;;
61399;SDS011;47269;48.182;-1.946;2023-02-15T19:27:02;33.88;;;20.05;;
61399;SDS011;47269;48.182;-1.946;2023-02-15T19:29:42;42.10;;;24.83;;
61399;SDS011;47269;48.182;-1.946;2023-02-15T19:32:16;39.40;;;22.92;;
61399;SDS011;47269;48.182;-1.946;2023-02-15T19:34:42;26.95;;;17.40;;
61399;SDS011;47269;48.182;-1.946;2023-02-15T19:37:16;24.33;;;13.48;;
61399;SDS011;47269;48.182;-1.946;2023-02-15T19:39:49;42.20;;;21.20;;
61399;SDS011;47269;48.182;-1.946;2023-02-15T19:42:17;26.92;;;13.43;;
61399;SDS011;47269;48.182;-1.946;2023-02-15T19:47:12;24.67;;;15.13;;
61399;SDS011;47269;48.182;-1.946;2023-02-15T19:49:38;33.35;;;19.77;;
61399;SDS011;47269;48.182;-1.946;2023-02-15T19:52:04;25.83;;;14.82;;
61399;SDS011;47269;48.182;-1.946;2023-02-15T19:54:37;19.85;;;12.18;;
61399;SDS011;47269;48.182;-1.946;2023-02-15T19:57:03;22.88;;;12.98;;
61399;SDS011;47269;48.182;-1.946;2023-02-15T19:59:30;17.48;;;10.70;;
61399;SDS011;47269;48.182;-1.946;2023-02-15T20:02:08;19.15;;;11.40;;
61399;SDS011;47269;48.182;-1.946;2023-02-15T20:04:38;25.38;;;15.52;;
61399;SDS011;47269;48.182;-1.946;2023-02-15T20:07:04;37.20;;;18.00;;
61399;SDS011;47269;48.182;-1.946;2023-02-15T20:09:43;22.48;;;13.98;;
61399;SDS011;47269;48.182;-1.946;2023-02-15T20:12:19;28.55;;;15.68;;
61399;SDS011;47269;48.182;-1.946;2023-02-15T20:14:46;19.95;;;13.50;;
61399;SDS011;47269;48.182;-1.946;2023-02-15T20:17:12;23.80;;;13.15;;
61399;SDS011;47269;48.182;-1.946;2023-02-15T20:19:38;30.42;;;17.55;;
61399;SDS011;47269;48.182;-1.946;2023-02-15T20:22:05;57.63;;;33.00;;
61399;SDS011;47269;48.182;-1.946;2023-02-15T20:24:35;26.97;;;15.93;;
61399;SDS011;47269;48.182;-1.946;2023-02-15T20:27:00;26.08;;;15.57;;
61399;SDS011;47269;48.182;-1.946;2023-02-15T20:29:26;20.70;;;13.30;;
61399;SDS011;47269;48.182;-1.946;2023-02-15T20:31:52;27.88;;;19.92;;
61399;SDS011;47269;48.182;-1.946;2023-02-15T20:34:18;20.27;;;14.45;;
61399;SDS011;47269;48.182;-1.946;2023-02-15T20:36:44;19.90;;;12.82;;
61399;SDS011;47269;48.182;-1.946;2023-02-15T20:39:12;24.63;;;13.07;;
61399;SDS011;47269;48.182;-1.946;2023-02-15T20:44:19;17.10;;;12.70;;
61399;SDS011;47269;48.182;-1.946;2023-02-15T20:46:49;18.70;;;12.95;;
61399;SDS011;47269;48.182;-1.946;2023-02-15T20:49:17;23.25;;;15.50;;
61399;SDS011;47269;48.182;-1.946;2023-02-15T20:51:43;32.63;;;16.05;;
61399;SDS011;47269;48.182;-1.946;2023-02-15T20:57:10;26.08;;;11.43;;
61399;SDS011;47269;48.182;-1.946;2023-02-15T20:59:38;20.85;;;11.05;;
61399;SDS011;47269;48.182;-1.946;2023-02-15T21:04:40;17.65;;;11.93;;
61399;SDS011;47269;48.182;-1.946;2023-02-15T21:07:08;20.35;;;11.05;;
61399;SDS011;47269;48.182;-1.946;2023-02-15T21:09:46;17.33;;;10.95;;
61399;SDS011;47269;48.182;-1.946;2023-02-15T21:12:14;22.27;;;10.52;;
61399;SDS011;47269;48.182;-1.946;2023-02-15T21:14:41;18.30;;;11.48;;
61399;SDS011;47269;48.182;-1.946;2023-02-15T21:17:11;21.73;;;13.38;;
61399;SDS011;47269;48.182;-1.946;2023-02-15T21:19:39;15.20;;;9.25;;
61399;SDS011;47269;48.182;-1.946;2023-02-15T21:22:05;12.65;;;8.05;;
61399;SDS011;47269;48.182;-1.946;2023-02-15T21:24:34;13.38;;;8.93;;
61399;SDS011;47269;48.182;-1.946;2023-02-15T21:27:00;23.38;;;12.18;;
61399;SDS011;47269;48.182;-1.946;2023-02-15T21:29:28;14.63;;;7.05;;
61399;SDS011;47269;48.182;-1.946;2023-02-15T21:31:55;16.48;;;8.50;;
61399;SDS011;47269;48.182;-1.946;2023-02-15T21:34:24;15.70;;;7.43;;
61399;SDS011;47269;48.182;-1.946;2023-02-15T21:36:50;15.35;;;7.50;;
61399;SDS011;47269;48.182;-1.946;2023-02-15T21:39:23;11.32;;;6.72;;
61399;SDS011;47269;48.182;-1.946;2023-02-15T21:41:50;23.35;;;11.68;;
61399;SDS011;47269;48.182;-1.946;2023-02-15T21:44:37;22.33;;;13.10;;
61399;SDS011;47269;48.182;-1.946;2023-02-15T21:47:25;19.45;;;9.82;;
61399;SDS011;47269;48.182;-1.946;2023-02-15T21:50:14;15.88;;;8.50;;
61399;SDS011;47269;48.182;-1.946;2023-02-15T21:53:03;26.15;;;10.82;;
61399;SDS011;47269;48.182;-1.946;2023-02-15T21:55:31;19.15;;;9.55;;
61399;SDS011;47269;48.182;-1.946;2023-02-15T21:57:58;25.45;;;10.27;;
61399;SDS011;47269;48.182;-1.946;2023-02-15T22:00:25;15.38;;;6.55;;
61399;SDS011;47269;48.182;-1.946;2023-02-15T22:02:52;17.75;;;11.38;;
61399;SDS011;47269;48.182;-1.946;2023-02-15T22:05:21;16.48;;;10.13;;
61399;SDS011;47269;48.182;-1.946;2023-02-15T22:07:55;25.67;;;15.38;;
61399;SDS011;47269;48.182;-1.946;2023-02-15T22:10:21;36.85;;;15.50;;
61399;SDS011;47269;48.182;-1.946;2023-02-15T22:12:50;21.13;;;12.60;;
61399;SDS011;47269;48.182;-1.946;2023-02-15T22:15:18;15.82;;;10.75;;
61399;SDS011;47269;48.182;-1.946;2023-02-15T22:17:45;17.13;;;9.82;;
61399;SDS011;47269;48.182;-1.946;2023-02-15T22:20:13;20.08;;;8.05;;
61399;SDS011;47269;48.182;-1.946;2023-02-15T22:22:41;16.48;;;8.15;;
61399;SDS011;47269;48.182;-1.946;2023-02-15T22:25:07;14.25;;;7.93;;
61399;SDS011;47269;48.182;-1.946;2023-02-15T22:27:34;17.52;;;9.02;;
61399;SDS011;47269;48.182;-1.946;2023-02-15T22:30:03;20.35;;;10.02;;
61399;SDS011;47269;48.182;-1.946;2023-02-15T22:32:48;21.20;;;9.20;;
61399;SDS011;47269;48.182;-1.946;2023-02-15T22:35:21;21.50;;;12.52;;
61399;SDS011;47269;48.182;-1.946;2023-02-15T22:37:58;25.05;;;12.18;;
61399;SDS011;47269;48.182;-1.946;2023-02-15T22:40:31;19.85;;;11.10;;
61399;SDS011;47269;48.182;-1.946;2023-02-15T22:43:02;27.60;;;13.63;;
61399;SDS011;47269;48.182;-1.946;2023-02-15T22:45:30;18.80;;;11.00;;
61399;SDS011;47269;48.182;-1.946;2023-02-15T22:47:57;18.17;;;9.40;;
61399;SDS011;47269;48.182;-1.946;2023-02-15T22:50:25;26.50;;;12.77;;
61399;SDS011;47269;48.182;-1.946;2023-02-15T22:52:53;19.08;;;8.80;;
61399;SDS011;47269;48.182;-1.946;2023-02-15T22:55:19;11.82;;;7.78;;
61399;SDS011;47269;48.182;-1.946;2023-02-15T22:57:48;13.30;;;8.02;;
